This is the latest recevied weather packets stored in our database for station/object 9W2YIE-13. If no packets are shown the sender has not sent any weather packets the latest 10 day(s).
| Time | Temp. | Humidity | Pressure | Rain* | Wind** | Luminosity | Snow |
|---|---|---|---|---|---|---|---|
| 1787684692 | 40.56° C | 37% | 1007 hPa | - | - | 0 W/m² | - |
| 1787683764 | 40.56° C | 38% | 1007 hPa | - | - | 0 W/m² | - |
| 1787682839 | 41.11° C | 37% | 1007 hPa | - | - | 0 W/m² | - |
| 1787681912 | 41.67° C | 37% | 1008 hPa | - | - | 0 W/m² | - |
| 1787680986 | 41.11° C | 38% | 1008 hPa | - | - | 0 W/m² | - |
| 1787680057 | 41.67° C | 36% | 1008 hPa | - | - | 0 W/m² | - |
| 1787676336 | 40° C | 40% | 1009 hPa | - | - | 0 W/m² | - |
| 1787675411 | 41.11° C | 38% | 1009 hPa | - | - | 0 W/m² | - |
| 1787674549 | 41.11° C | 38% | 1009 hPa | - | - | 0 W/m² | - |
| 1787673621 | 41.67° C | 37% | 1009 hPa | - | - | 0 W/m² | - |
| 1787672292 | 40.56° C | 39% | 1009 hPa | - | - | 0 W/m² | - |
| 1787671012 | 41.11° C | 38% | 1009 hPa | - | - | 0 W/m² | - |
| 1787670082 | 40.56° C | 39% | 1009 hPa | - | - | 0 W/m² | - |
| 1787669157 | 40.56° C | 39% | 1009 hPa | - | - | 0 W/m² | - |
| 1787668222 | 42.22° C | 36% | 1009 hPa | - | - | 0 W/m² | - |
| 1787667286 | 41.67° C | 37% | 1009 hPa | - | - | 0 W/m² | - |
| 1787666355 | 41.67° C | 38% | 1009 hPa | - | - | 0 W/m² | - |
| 1787665418 | 41.67° C | 37% | 1009 hPa | - | - | 0 W/m² | - |
| 1787664480 | 42.78° C | 36% | 1009 hPa | - | - | 0 W/m² | - |
| 1787663521 | 41.67° C | 37% | 1008 hPa | - | - | 0 W/m² | - |
| 1787663451 | 41.67° C | 37% | 1008 hPa | - | - | 0 W/m² | - |
| 1787662489 | 40.56° C | 38% | 1008 hPa | - | - | 0 W/m² | - |
| 1787661526 | 41.67° C | 37% | 1008 hPa | - | - | 0 W/m² | - |
| 1787660582 | 41.67° C | 37% | 1008 hPa | - | - | 0 W/m² | - |
| 1787659639 | 42.22° C | 37% | 1008 hPa | - | - | 0 W/m² | - |
* Rain since midnight (hover to see other rain measurements)
** Current wind speed in m/s (hover to see current wind gust speed)